createdAt,value
2023-04-06T00:01:33.649Z,4.43
2023-04-06T00:04:01.372Z,4.49
2023-04-06T00:06:28.785Z,4.27
2023-04-06T00:08:56.895Z,4.49
2023-04-06T00:11:24.533Z,4.88
2023-04-06T00:13:51.927Z,5.02
2023-04-06T00:16:19.473Z,4.75
2023-04-06T00:18:47.156Z,4.83
2023-04-06T00:21:15.561Z,4.57
2023-04-06T00:23:43.007Z,4.90
2023-04-06T00:26:11.660Z,4.92
2023-04-06T00:28:40.293Z,5.15
2023-04-06T00:31:08.016Z,5.22
2023-04-06T00:33:35.823Z,4.94
2023-04-06T00:36:03.329Z,4.59
2023-04-06T00:38:30.819Z,4.81
2023-04-06T00:40:58.494Z,4.77
2023-04-06T00:43:25.998Z,4.76
2023-04-06T00:45:53.782Z,4.54
2023-04-06T00:48:22.338Z,4.42
2023-04-06T00:50:49.740Z,4.25
2023-04-06T00:53:17.283Z,4.52
2023-04-06T00:55:45.101Z,4.68
2023-04-06T00:58:12.530Z,4.48
2023-04-06T01:00:40.609Z,4.04
2023-04-06T01:03:10.278Z,4.36
2023-04-06T01:05:41.495Z,3.85
2023-04-06T01:08:10.520Z,4.21
2023-04-06T01:10:37.970Z,4.40
2023-04-06T01:13:05.978Z,4.39
2023-04-06T01:15:40.106Z,4.63
2023-04-06T01:18:11.312Z,4.60
2023-04-06T01:20:40.610Z,4.67
2023-04-06T01:23:08.681Z,4.93
2023-04-06T01:25:36.864Z,4.94
2023-04-06T01:28:04.995Z,4.93
2023-04-06T01:30:33.589Z,4.67
2023-04-06T01:33:01.332Z,4.86
2023-04-06T01:35:31.165Z,4.65
2023-04-06T01:37:58.976Z,4.83
2023-04-06T01:40:26.644Z,4.78
2023-04-06T01:42:54.309Z,4.63
2023-04-06T01:45:22.733Z,4.00
2023-04-06T01:47:51.756Z,4.26
2023-04-06T01:50:21.899Z,4.06
2023-04-06T01:52:49.420Z,4.52
2023-04-06T01:55:16.931Z,4.72
2023-04-06T01:57:46.384Z,4.41
2023-04-06T02:00:15.402Z,4.69
2023-04-06T02:02:44.495Z,3.84
2023-04-06T02:05:12.522Z,4.31
2023-04-06T02:07:40.273Z,4.15
2023-04-06T02:10:13.014Z,3.89
2023-04-06T02:12:40.525Z,4.19
2023-04-06T02:15:09.137Z,4.18
2023-04-06T02:17:36.745Z,4.59
2023-04-06T02:20:04.313Z,4.39
2023-04-06T02:22:31.925Z,4.54
2023-04-06T02:25:00.306Z,4.55
2023-04-06T02:27:27.925Z,4.11
2023-04-06T02:29:55.618Z,4.22
2023-04-06T02:32:23.138Z,3.96
2023-04-06T02:34:50.624Z,4.46
2023-04-06T02:37:18.908Z,3.93
2023-04-06T02:39:46.414Z,4.45
2023-04-06T02:42:13.807Z,4.24
2023-04-06T02:44:41.585Z,4.45
2023-04-06T02:47:09.311Z,4.54
2023-04-06T02:49:37.778Z,4.47
2023-04-06T02:52:05.420Z,4.53
2023-04-06T02:54:33.265Z,4.08
2023-04-06T02:57:00.834Z,4.21
2023-04-06T02:59:30.807Z,4.43
2023-04-06T03:01:58.627Z,4.44
2023-04-06T03:04:26.574Z,3.81
2023-04-06T03:06:55.334Z,4.18
2023-04-06T03:09:23.766Z,4.19
2023-04-06T03:11:51.500Z,3.62
2023-04-06T03:14:22.630Z,4.25
2023-04-06T03:16:50.564Z,4.14
2023-04-06T03:19:18.894Z,4.06
2023-04-06T03:21:46.707Z,3.87
2023-04-06T03:24:14.889Z,4.01
2023-04-06T03:26:43.299Z,4.37
2023-04-06T03:29:10.813Z,3.97
2023-04-06T03:31:38.439Z,4.26
2023-04-06T03:34:06.394Z,4.30
2023-04-06T03:36:35.378Z,4.37
2023-04-06T03:39:03.896Z,4.37
2023-04-06T03:41:32.345Z,4.44
2023-04-06T03:44:00.427Z,3.95
2023-04-06T03:46:27.912Z,4.07
2023-04-06T03:48:55.947Z,4.19
2023-04-06T03:51:23.519Z,4.07
2023-04-06T03:53:50.904Z,4.22
2023-04-06T03:56:18.657Z,4.17
2023-04-06T03:58:46.284Z,4.06
2023-04-06T04:01:13.963Z,4.32
2023-04-06T04:03:41.706Z,4.18
2023-04-06T04:06:09.161Z,4.10
2023-04-06T04:08:36.693Z,4.11
2023-04-06T04:11:04.355Z,4.32
2023-04-06T04:13:32.032Z,3.97
2023-04-06T04:15:59.658Z,4.00
2023-04-06T04:18:27.506Z,4.02
2023-04-06T04:20:54.883Z,3.97
2023-04-06T04:23:22.927Z,3.95
2023-04-06T04:25:50.683Z,4.20
2023-04-06T04:28:18.187Z,3.73
2023-04-06T04:30:46.685Z,3.99
2023-04-06T04:33:14.448Z,2.52
2023-04-06T04:35:42.106Z,3.02
2023-04-06T04:38:10.366Z,2.94
2023-04-06T04:40:38.622Z,2.83
2023-04-06T04:43:06.872Z,2.36
2023-04-06T04:45:34.654Z,3.26
2023-04-06T04:48:03.511Z,3.00
2023-04-06T04:50:32.172Z,3.19
2023-04-06T04:52:59.759Z,2.03
2023-04-06T04:55:30.191Z,1.74
2023-04-06T04:57:58.242Z,1.78
2023-04-06T05:00:26.785Z,1.29
2023-04-06T05:02:56.367Z,1.89
2023-04-06T05:05:24.108Z,1.47
2023-04-06T05:07:51.681Z,1.85
2023-04-06T05:10:19.921Z,1.66
2023-04-06T05:12:48.089Z,1.86
2023-04-06T05:15:16.225Z,1.42
2023-04-06T05:17:43.965Z,0.78
2023-04-06T05:20:12.135Z,0.95
2023-04-06T05:22:42.402Z,0.35
2023-04-06T05:25:10.822Z,1.32
2023-04-06T05:27:38.930Z,2.01
2023-04-06T05:30:07.809Z,1.25
2023-04-06T05:32:39.007Z,1.52
2023-04-06T05:35:06.738Z,2.26
2023-04-06T05:37:34.527Z,1.59
2023-04-06T05:40:03.750Z,2.31
2023-04-06T05:42:39.070Z,1.22
2023-04-06T05:45:07.716Z,1.71
2023-04-06T05:47:35.913Z,1.54
2023-04-06T05:50:03.768Z,1.40
2023-04-06T05:52:31.821Z,0.68
2023-04-06T05:54:59.885Z,2.10
2023-04-06T05:57:27.715Z,1.64
2023-04-06T05:59:56.303Z,2.17
2023-04-06T06:02:24.914Z,2.40
2023-04-06T06:04:52.922Z,2.27
2023-04-06T06:07:20.772Z,1.47
2023-04-06T06:09:48.583Z,1.26
2023-04-06T06:12:16.705Z,0.74
2023-04-06T06:14:44.356Z,2.14
2023-04-06T06:17:11.815Z,2.90
2023-04-06T06:19:39.725Z,2.69
2023-04-06T06:22:07.459Z,2.80
2023-04-06T06:24:36.058Z,2.95
2023-04-06T06:27:03.923Z,2.72
2023-04-06T06:29:32.199Z,2.62
2023-04-06T06:31:59.829Z,3.90
2023-04-06T06:34:27.752Z,3.98
2023-04-06T06:36:56.581Z,3.35
2023-04-06T06:39:24.297Z,3.47
2023-04-06T06:41:52.150Z,3.67
2023-04-06T06:44:22.677Z,3.05
2023-04-06T06:46:50.280Z,2.29
2023-04-06T06:49:19.560Z,2.33
2023-04-06T06:51:47.427Z,2.91
2023-04-06T06:54:14.816Z,2.13
2023-04-06T06:56:42.537Z,2.48
2023-04-06T06:59:10.099Z,2.28
2023-04-06T07:01:38.492Z,2.84
2023-04-06T07:04:06.504Z,2.81
2023-04-06T07:06:33.947Z,3.00
2023-04-06T07:09:01.387Z,2.59
2023-04-06T07:11:29.083Z,3.64
2023-04-06T07:13:56.482Z,2.79
2023-04-06T07:16:24.024Z,3.20
2023-04-06T07:18:51.981Z,3.12
2023-04-06T07:21:19.605Z,3.47
2023-04-06T07:23:49.078Z,3.81
2023-04-06T07:26:17.469Z,4.24
2023-04-06T07:28:44.912Z,4.22
2023-04-06T07:31:12.843Z,3.47
2023-04-06T07:33:41.015Z,3.52
2023-04-06T07:36:08.831Z,3.73
2023-04-06T07:38:36.346Z,4.63
2023-04-06T07:41:05.042Z,4.83
2023-04-06T07:43:33.307Z,3.73
2023-04-06T07:46:01.558Z,3.71
2023-04-06T07:48:29.279Z,3.30
2023-04-06T07:51:03.671Z,2.98
2023-04-06T07:53:31.789Z,3.91
2023-04-06T07:55:59.644Z,4.32
2023-04-06T07:58:27.113Z,4.27
2023-04-06T08:00:55.646Z,4.19
2023-04-06T08:03:26.800Z,4.25
2023-04-06T08:05:54.335Z,4.87
2023-04-06T08:08:22.328Z,5.20
2023-04-06T08:10:49.970Z,5.04
2023-04-06T08:13:17.393Z,4.74
2023-04-06T08:15:44.951Z,4.70
2023-04-06T08:18:12.668Z,4.69
2023-04-06T08:20:40.650Z,4.61
2023-04-06T08:23:10.258Z,5.08
2023-04-06T08:25:38.078Z,5.17
2023-04-06T08:28:05.663Z,4.60
2023-04-06T08:30:33.326Z,4.45
2023-04-06T08:33:01.265Z,5.28
2023-04-06T08:35:28.906Z,4.95
2023-04-06T08:37:56.329Z,5.77
2023-04-06T08:40:23.967Z,6.22
2023-04-06T08:42:53.566Z,4.95
2023-04-06T08:45:22.321Z,4.87
2023-04-06T08:47:53.491Z,4.74
2023-04-06T08:50:21.030Z,5.79
2023-04-06T08:52:49.217Z,6.05
2023-04-06T08:55:17.281Z,6.08
2023-04-06T08:57:44.655Z,5.26
2023-04-06T09:00:12.542Z,5.75
2023-04-06T09:02:42.115Z,6.27
2023-04-06T09:05:10.770Z,6.86
2023-04-06T09:07:38.249Z,6.64
2023-04-06T09:10:06.765Z,7.20
2023-04-06T09:12:34.210Z,6.83
2023-04-06T09:15:01.768Z,6.40
2023-04-06T09:17:31.012Z,6.20
2023-04-06T09:19:58.474Z,6.50
2023-04-06T09:22:26.772Z,6.78
2023-04-06T09:24:54.709Z,5.96
2023-04-06T09:27:34.981Z,6.53
2023-04-06T09:30:06.947Z,6.92
2023-04-06T09:32:45.700Z,7.82
2023-04-06T09:35:13.562Z,8.34
2023-04-06T09:37:40.920Z,7.47
2023-04-06T09:40:08.796Z,6.57
2023-04-06T09:42:36.439Z,6.68
2023-04-06T09:45:04.167Z,7.77
2023-04-06T09:47:31.902Z,7.07
2023-04-06T09:50:00.246Z,6.56
2023-04-06T09:52:49.852Z,7.44
2023-04-06T09:55:50.025Z,7.09
2023-04-06T09:58:20.209Z,7.18
2023-04-06T10:01:04.345Z,6.21
2023-04-06T10:03:39.830Z,8.06
2023-04-06T10:06:12.163Z,8.00
2023-04-06T10:08:41.507Z,7.68
2023-04-06T10:11:10.035Z,7.59
2023-04-06T10:13:37.581Z,8.76
2023-04-06T10:16:05.443Z,8.30
2023-04-06T10:18:32.990Z,8.57
2023-04-06T10:21:07.607Z,10.13
2023-04-06T10:23:55.080Z,9.25
2023-04-06T10:26:22.550Z,9.22
2023-04-06T10:28:50.858Z,8.00
2023-04-06T10:31:28.650Z,7.92
2023-04-06T10:33:57.738Z,8.01
2023-04-06T10:36:29.253Z,7.71
2023-04-06T10:38:59.003Z,7.45
2023-04-06T10:41:46.727Z,7.93
2023-04-06T10:44:24.559Z,7.81
2023-04-06T10:47:01.351Z,7.47
2023-04-06T10:49:29.048Z,7.38
2023-04-06T10:51:56.898Z,7.65
2023-04-06T10:54:26.095Z,7.68
2023-04-06T10:56:53.745Z,8.01
2023-04-06T10:59:22.093Z,8.11
2023-04-06T11:01:49.651Z,8.08
2023-04-06T11:04:18.893Z,8.37
2023-04-06T11:06:49.849Z,7.98
2023-04-06T11:09:30.776Z,8.36
2023-04-06T11:11:58.302Z,8.60
2023-04-06T11:14:27.605Z,8.16
2023-04-06T11:16:55.969Z,7.90
2023-04-06T11:19:23.786Z,8.02
2023-04-06T11:21:51.644Z,7.71
2023-04-06T11:24:22.806Z,7.97
2023-04-06T11:26:53.447Z,7.82
2023-04-06T11:29:22.324Z,7.84
2023-04-06T11:31:51.123Z,8.32
2023-04-06T11:34:28.881Z,8.38
2023-04-06T11:37:00.976Z,8.83
2023-04-06T11:39:29.312Z,8.18
2023-04-06T11:42:01.080Z,8.38
2023-04-06T11:44:47.034Z,7.92
2023-04-06T11:47:14.812Z,8.64
2023-04-06T11:49:43.331Z,8.88
2023-04-06T11:52:21.409Z,8.92
2023-04-06T11:54:49.857Z,8.72
2023-04-06T11:57:17.765Z,8.98
2023-04-06T11:59:45.495Z,8.79
2023-04-06T12:02:13.156Z,9.30
2023-04-06T12:04:40.878Z,8.71
2023-04-06T12:07:08.228Z,9.36
2023-04-06T12:09:35.754Z,9.34
2023-04-06T12:12:04.086Z,8.93
2023-04-06T12:14:31.760Z,8.88
2023-04-06T12:16:59.367Z,8.21
2023-04-06T12:19:27.181Z,8.22
2023-04-06T12:21:55.484Z,8.52
2023-04-06T12:24:22.957Z,8.28
2023-04-06T12:26:54.004Z,8.21
2023-04-06T12:29:27.094Z,8.55
2023-04-06T12:31:54.805Z,8.69
2023-04-06T12:34:22.180Z,8.57
2023-04-06T12:36:49.614Z,8.77
2023-04-06T12:39:18.826Z,8.21
2023-04-06T12:41:47.846Z,8.72
2023-04-06T12:44:15.236Z,8.66
2023-04-06T12:46:44.318Z,8.37
2023-04-06T12:49:12.110Z,8.68
2023-04-06T12:51:39.494Z,8.57
2023-04-06T12:54:07.552Z,9.33
2023-04-06T12:56:34.965Z,8.76
2023-04-06T12:59:02.452Z,9.02
2023-04-06T13:01:30.204Z,9.17
2023-04-06T13:03:58.830Z,8.35
2023-04-06T13:06:29.527Z,8.03
2023-04-06T13:08:57.213Z,8.56
2023-04-06T13:11:27.869Z,8.38
2023-04-06T13:13:56.273Z,8.76
2023-04-06T13:16:23.999Z,8.98
2023-04-06T13:18:52.096Z,8.36
2023-04-06T13:21:21.304Z,9.47
2023-04-06T13:23:48.977Z,9.43
2023-04-06T13:26:17.652Z,9.46
2023-04-06T13:28:45.127Z,9.17
2023-04-06T13:31:12.914Z,8.94
2023-04-06T13:33:41.887Z,9.02
2023-04-06T13:36:09.502Z,8.75
2023-04-06T13:38:39.839Z,9.09
2023-04-06T13:41:07.297Z,8.72
2023-04-06T13:43:34.723Z,8.97
2023-04-06T13:46:02.463Z,8.55
2023-04-06T13:48:29.950Z,8.82
2023-04-06T13:50:57.355Z,8.95
2023-04-06T13:53:25.277Z,9.00
2023-04-06T13:55:56.149Z,9.36
2023-04-06T13:58:24.041Z,8.02
2023-04-06T14:00:52.012Z,8.58
2023-04-06T14:03:20.080Z,9.05
2023-04-06T14:05:47.491Z,8.51
2023-04-06T14:08:14.896Z,8.49
2023-04-06T14:10:43.258Z,8.74
2023-04-06T14:13:11.502Z,8.17
2023-04-06T14:15:39.086Z,8.48
2023-04-06T14:18:07.076Z,7.75
2023-04-06T14:20:34.540Z,7.49
2023-04-06T14:23:02.852Z,7.98
2023-04-06T14:25:32.954Z,8.11
2023-04-06T14:28:00.772Z,7.56
2023-04-06T14:30:29.027Z,8.11
2023-04-06T14:32:59.863Z,7.84
2023-04-06T14:35:29.131Z,8.13
2023-04-06T14:37:59.000Z,8.16
2023-04-06T14:40:26.433Z,7.80
2023-04-06T14:42:53.807Z,7.72
2023-04-06T14:45:22.829Z,7.60
2023-04-06T14:47:50.342Z,8.06
2023-04-06T14:50:17.723Z,7.69
2023-04-06T14:52:47.237Z,8.20
2023-04-06T14:55:15.038Z,7.91
2023-04-06T14:57:42.395Z,7.30
2023-04-06T15:00:11.067Z,7.74
2023-04-06T15:02:39.372Z,7.23
2023-04-06T15:05:07.291Z,7.65
2023-04-06T15:07:34.977Z,7.85
2023-04-06T15:10:02.420Z,8.44
2023-04-06T15:12:30.797Z,7.61
2023-04-06T15:14:58.497Z,8.03
2023-04-06T15:17:27.491Z,7.93
2023-04-06T15:19:55.365Z,7.85
2023-04-06T15:22:23.037Z,7.04
2023-04-06T15:24:50.526Z,7.09
2023-04-06T15:27:17.864Z,7.44
2023-04-06T15:29:45.718Z,7.54
2023-04-06T15:32:13.411Z,7.74
2023-04-06T15:34:40.843Z,7.33
2023-04-06T15:37:09.245Z,7.41
2023-04-06T15:39:37.794Z,7.32
2023-04-06T15:42:05.263Z,7.26
2023-04-06T15:44:32.882Z,7.32
2023-04-06T15:47:00.332Z,7.79
2023-04-06T15:49:27.742Z,7.16
2023-04-06T15:51:55.406Z,7.28
2023-04-06T15:54:22.766Z,7.95
2023-04-06T15:56:50.932Z,7.76
2023-04-06T15:59:18.526Z,7.36
2023-04-06T16:01:46.785Z,7.19
2023-04-06T16:04:14.928Z,7.01
2023-04-06T16:06:42.468Z,6.49
2023-04-06T16:09:09.838Z,6.75
2023-04-06T16:11:37.567Z,6.51
2023-04-06T16:14:05.245Z,6.41
2023-04-06T16:16:32.732Z,6.51
2023-04-06T16:19:00.476Z,6.57
2023-04-06T16:21:28.777Z,6.20
2023-04-06T16:23:58.021Z,6.20
2023-04-06T16:26:27.218Z,6.42
2023-04-06T16:28:54.706Z,6.19
2023-04-06T16:31:23.606Z,5.98
2023-04-06T16:33:56.290Z,6.29
2023-04-06T16:36:27.902Z,5.51
2023-04-06T16:38:59.065Z,4.89
2023-04-06T16:41:27.548Z,5.03
2023-04-06T16:43:58.029Z,5.09
2023-04-06T16:46:35.960Z,5.62
2023-04-06T16:49:04.188Z,5.51
2023-04-06T16:51:32.427Z,6.01
2023-04-06T16:53:59.818Z,4.99
2023-04-06T16:56:27.573Z,4.27
2023-04-06T16:58:55.513Z,4.71
2023-04-06T17:01:24.162Z,4.22
2023-04-06T17:03:51.681Z,3.88
2023-04-06T17:06:19.593Z,3.93
2023-04-06T17:08:47.401Z,3.93
2023-04-06T17:11:18.696Z,3.57
2023-04-06T17:13:51.096Z,3.53
2023-04-06T17:16:19.473Z,4.00
2023-04-06T17:18:46.901Z,3.73
2023-04-06T17:21:14.655Z,3.86
2023-04-06T17:23:42.061Z,3.42
2023-04-06T17:26:09.418Z,3.51
2023-04-06T17:28:37.042Z,3.65
2023-04-06T17:31:08.069Z,3.65
2023-04-06T17:33:36.370Z,3.06
2023-04-06T17:36:04.710Z,3.76
2023-04-06T17:38:32.144Z,3.49
2023-04-06T17:41:01.282Z,2.98
2023-04-06T17:43:28.930Z,2.93
2023-04-06T17:45:56.276Z,2.92
2023-04-06T17:48:23.664Z,3.43
2023-04-06T17:50:51.306Z,3.05
2023-04-06T17:53:20.361Z,3.38
2023-04-06T17:55:47.801Z,2.97
2023-04-06T17:58:15.671Z,2.84
2023-04-06T18:00:43.029Z,2.73
2023-04-06T18:03:10.668Z,2.84
2023-04-06T18:05:38.505Z,3.22
2023-04-06T18:08:05.974Z,2.92
2023-04-06T18:10:37.261Z,2.89
2023-04-06T18:13:04.613Z,2.98
2023-04-06T18:15:32.062Z,2.87
2023-04-06T18:17:59.697Z,2.89
2023-04-06T18:20:27.152Z,3.02
2023-04-06T18:22:55.743Z,2.94
2023-04-06T18:25:25.316Z,3.03
2023-04-06T18:27:52.696Z,3.28
2023-04-06T18:30:20.529Z,3.30
2023-04-06T18:32:48.792Z,3.23
2023-04-06T18:35:16.428Z,2.84
2023-04-06T18:37:43.758Z,2.81
2023-04-06T18:40:33.023Z,2.68
2023-04-06T18:43:00.643Z,2.92
2023-04-06T18:45:28.368Z,3.00
2023-04-06T18:47:56.750Z,3.24
2023-04-06T18:50:24.178Z,3.22
2023-04-06T18:52:52.186Z,2.91
2023-04-06T18:55:19.777Z,3.42
2023-04-06T18:57:47.205Z,3.77
2023-04-06T19:00:15.570Z,3.23
2023-04-06T19:02:43.870Z,2.90
2023-04-06T19:05:12.157Z,3.54
2023-04-06T19:07:39.985Z,3.95
2023-04-06T19:10:08.369Z,3.53
2023-04-06T19:12:37.637Z,3.91
2023-04-06T19:15:07.535Z,3.27
2023-04-06T19:17:35.395Z,3.37
2023-04-06T19:20:02.923Z,3.84
2023-04-06T19:22:31.116Z,3.61
2023-04-06T19:24:58.488Z,3.63
2023-04-06T19:27:26.013Z,3.72
2023-04-06T19:29:53.644Z,3.52
2023-04-06T19:32:21.078Z,3.72
2023-04-06T19:34:48.817Z,4.15
2023-04-06T19:37:16.405Z,3.18
2023-04-06T19:39:47.645Z,2.93
2023-04-06T19:42:21.629Z,3.13
2023-04-06T19:44:49.296Z,3.65
2023-04-06T19:47:16.683Z,3.38
2023-04-06T19:49:44.076Z,2.69
2023-04-06T19:52:11.793Z,3.42
2023-04-06T19:54:39.668Z,3.07
2023-04-06T19:57:07.165Z,3.82
2023-04-06T19:59:34.749Z,3.50
2023-04-06T20:02:02.226Z,3.54
2023-04-06T20:04:30.091Z,3.36
2023-04-06T20:06:57.620Z,3.05
2023-04-06T20:09:25.252Z,3.47
2023-04-06T20:11:54.113Z,3.67
2023-04-06T20:14:22.219Z,3.95
2023-04-06T20:16:50.854Z,3.67
2023-04-06T20:19:19.248Z,3.43
2023-04-06T20:21:48.212Z,3.66
2023-04-06T20:24:15.748Z,3.43
2023-04-06T20:26:43.380Z,3.28
2023-04-06T20:29:10.747Z,3.19
2023-04-06T20:31:38.134Z,3.43
2023-04-06T20:34:05.905Z,3.02
2023-04-06T20:36:34.251Z,3.10
2023-04-06T20:39:01.591Z,2.86
2023-04-06T20:41:29.303Z,3.18
2023-04-06T20:43:56.640Z,3.17
2023-04-06T20:46:25.150Z,3.35
2023-04-06T20:48:53.065Z,3.35
2023-04-06T20:51:21.266Z,2.98
2023-04-06T20:53:48.791Z,2.64
2023-04-06T20:56:16.511Z,2.77
2023-04-06T20:58:43.884Z,2.91
2023-04-06T21:01:14.946Z,2.52
2023-04-06T21:03:43.012Z,2.99
2023-04-06T21:06:10.852Z,3.20
2023-04-06T21:08:38.253Z,2.83
2023-04-06T21:11:06.320Z,2.44
2023-04-06T21:13:34.396Z,3.00
2023-04-06T21:16:02.166Z,2.85
2023-04-06T21:18:30.806Z,2.85
2023-04-06T21:20:58.217Z,3.42
2023-04-06T21:23:25.696Z,3.09
2023-04-06T21:25:56.873Z,3.60
2023-04-06T21:28:27.067Z,2.92
2023-04-06T21:30:54.721Z,3.93
2023-04-06T21:33:22.417Z,3.44
2023-04-06T21:35:49.833Z,3.80
2023-04-06T21:38:17.456Z,3.66
2023-04-06T21:40:44.811Z,3.00
2023-04-06T21:43:12.143Z,3.52
2023-04-06T21:45:40.306Z,4.09
2023-04-06T21:48:07.887Z,4.82
2023-04-06T21:50:39.543Z,3.81
2023-04-06T21:53:07.189Z,3.59
2023-04-06T21:55:34.554Z,3.44
2023-04-06T21:58:01.911Z,3.57
2023-04-06T22:00:29.562Z,3.80
2023-04-06T22:02:57.390Z,3.20
2023-04-06T22:05:24.930Z,3.24
2023-04-06T22:07:52.711Z,3.42
2023-04-06T22:10:20.451Z,3.42
2023-04-06T22:12:49.770Z,4.16
2023-04-06T22:15:17.137Z,4.06
2023-04-06T22:17:44.775Z,4.26
2023-04-06T22:20:12.273Z,4.23
2023-04-06T22:22:39.734Z,4.49
2023-04-06T22:25:07.725Z,3.42
2023-04-06T22:27:35.082Z,3.66
2023-04-06T22:30:03.313Z,3.82
2023-04-06T22:32:31.004Z,3.73
2023-04-06T22:34:58.430Z,3.42
2023-04-06T22:37:25.886Z,3.44
2023-04-06T22:39:53.533Z,3.50
2023-04-06T22:42:20.858Z,3.75
2023-04-06T22:44:48.221Z,3.78
2023-04-06T22:47:16.024Z,3.81
2023-04-06T22:49:43.474Z,3.28
2023-04-06T22:52:10.905Z,3.30
2023-04-06T22:54:38.972Z,3.50
2023-04-06T22:57:06.347Z,3.64
2023-04-06T22:59:33.725Z,4.44
2023-04-06T23:02:01.512Z,4.45
2023-04-06T23:04:28.982Z,4.02
2023-04-06T23:06:56.515Z,3.92
2023-04-06T23:09:24.319Z,3.66
2023-04-06T23:11:51.707Z,4.16
2023-04-06T23:14:19.049Z,4.12
2023-04-06T23:16:46.761Z,4.03
2023-04-06T23:19:14.145Z,3.76
2023-04-06T23:21:41.704Z,4.53
2023-04-06T23:24:09.433Z,4.32
2023-04-06T23:26:36.790Z,4.25
2023-04-06T23:29:04.140Z,4.15
2023-04-06T23:31:31.732Z,3.37
2023-04-06T23:33:59.081Z,4.40
2023-04-06T23:36:26.876Z,3.94
2023-04-06T23:38:54.669Z,4.39
2023-04-06T23:41:22.554Z,3.59
2023-04-06T23:43:49.969Z,4.06
2023-04-06T23:46:17.818Z,4.67
2023-04-06T23:48:45.328Z,4.63
2023-04-06T23:51:12.711Z,3.91
2023-04-06T23:53:41.141Z,4.40
2023-04-06T23:56:08.499Z,4.92
2023-04-06T23:58:35.910Z,5.11
